Mary Airport
UTAM : now visible

Airfield :











YOU CAN JOIN US ON...

 
LOGIN :

Register | Disclaimer

   EN    FR    IT 

 









Legend :    VFR   Marginal VFR   IFR   Intensive IFR   Very Intensive IFR
Visi :
Ceiling :
>= 8 km
>= 3000ft
5 to 8 km
1000 to 3000 ft
1500m to 5 km
500 to 1000 ft
800 to 1500m
200 to 500 ft
< 800m
< 200 ft
Symbols :   Thunderstorms  Fog  Heavy snow  Heavy precipitations  Wind > 20 kt






- Airport Elevation : 728 ft
- IATA code : MYP


UTAM - Mary

CURRENT METAR :
  • 090100Z 16004KT 6000 NSC 02/01 Q1036 R88/1///60 TEMPO 0500 FG VV003

EXPIRED METARs :
  • 090000Z 20006KT 6000 NSC 03/02 Q1036 R88/1///60 NOSIG
  • 082300Z 20006KT 6000 NSC 03/01 Q1036 R88/1///60 NOSIG
  • 082200Z 20008KT 6000 NSC 03/02 Q1036 R88/1///60 NOSIG

TAF TAF UTAM
Valid from the 09 at 00:00 until the 10 at 00:00 UTC


082230Z 0900/0924 22012KT 1000 BR OVC003
TEMPO 0900/0904 VRB04KT 0500 FG VV002
BECMG 0905/0906 12016KT 5000 BKN020



MET'MAP, your aeronautical weather chart ! - Copyright ORBIFLY December 2007 - Disclaimer

ORBIFLY MET'MAP TEAM :

Programming & Development : Alexandra Zaïnal
Concept & original design : Baudouin d'Aumeries
Assistance for programming : Marc-Olivier Méhu
Technical & hardware support : Manuel Goepfert

Contact : metmap@orbifly.com




SOURCES & CREDITS :

   NOAA       Earth
Advisory